createdAt,value
2019-04-04T00:00:01.359Z,507.6920
2019-04-04T00:00:08.262Z,507.8410
2019-04-04T00:00:16.346Z,505.7290
2019-04-04T00:00:23.273Z,502.6890
2019-04-04T00:00:30.255Z,499.3980
2019-04-04T00:00:39.250Z,497.3600
2019-04-04T00:00:48.261Z,498.8650
2019-04-04T00:00:57.270Z,497.4970
2019-04-04T00:01:06.263Z,496.6790
2019-04-04T00:01:16.715Z,496.6400
2019-04-04T00:01:29.270Z,498.2790
2019-04-04T00:01:38.248Z,499.2440
2019-04-04T00:01:48.221Z,499.2930
2019-04-04T00:01:57.263Z,497.5900
2019-04-04T00:02:06.257Z,496.2960
2019-04-04T00:02:15.273Z,498.0200
2019-04-04T00:02:24.276Z,502.9270
2019-04-04T00:02:33.266Z,505.0240
2019-04-04T00:02:42.259Z,505.8820
2019-04-04T00:02:51.264Z,508.7800
2019-04-04T00:03:00.273Z,510.9410
2019-04-04T00:03:08.276Z,511.5060
2019-04-04T00:03:15.265Z,511.5650
2019-04-04T00:03:22.282Z,511.2220
2019-04-04T00:03:29.268Z,510.3200
2019-04-04T00:03:36.263Z,508.7260
2019-04-04T00:03:43.257Z,509.1930
2019-04-04T00:03:51.845Z,509.3010
2019-04-04T00:03:59.250Z,508.5500
2019-04-04T00:04:06.267Z,507.7200
2019-04-04T00:04:13.274Z,507.2110
2019-04-04T00:04:22.112Z,507.7570
2019-04-04T00:04:29.270Z,510.1960
2019-04-04T00:04:36.277Z,512.3890
2019-04-04T00:04:43.277Z,515.1320
2019-04-04T00:04:52.358Z,517.3150
2019-04-04T00:04:59.277Z,519.3770
2019-04-04T00:05:06.268Z,521.3840
2019-04-04T00:05:13.261Z,523.1780
2019-04-04T00:05:20.278Z,523.2040
2019-04-04T00:05:27.271Z,522.7500
2019-04-04T00:05:34.274Z,522.4450
2019-04-04T00:05:41.288Z,521.5410
2019-04-04T00:05:48.260Z,520.1200
2019-04-04T00:05:56.622Z,520.2880
2019-04-04T00:06:04.270Z,517.2930
2019-04-04T00:06:11.263Z,514.5280
2019-04-04T00:06:18.262Z,512.2650
2019-04-04T00:06:27.732Z,510.8320
2019-04-04T00:06:36.253Z,510.5100
2019-04-04T00:06:45.265Z,507.8510
2019-04-04T00:06:54.264Z,504.9030
2019-04-04T00:07:03.271Z,501.4550
2019-04-04T00:07:12.339Z,496.7410
2019-04-04T00:07:21.263Z,498.6080
2019-04-04T00:07:30.266Z,501.1410
2019-04-04T00:07:39.275Z,504.4920
2019-04-04T00:07:48.277Z,506.2270
2019-04-04T00:07:58.062Z,507.8600
2019-04-04T00:08:09.278Z,511.6520
2019-04-04T00:08:18.252Z,513.3350
2019-04-04T00:08:27.264Z,512.9430
2019-04-04T00:08:36.271Z,512.0270
2019-04-04T00:08:45.265Z,512.3660
2019-04-04T00:08:54.306Z,517.4580
2019-04-04T00:09:02.073Z,518.5560
2019-04-04T00:09:09.270Z,519.3390
2019-04-04T00:09:16.273Z,517.3430
2019-04-04T00:09:23.261Z,519.2340
2019-04-04T00:09:32.838Z,516.8270
2019-04-04T00:09:40.255Z,515.9620
2019-04-04T00:09:47.257Z,514.1590
2019-04-04T00:09:54.249Z,508.1970
2019-04-04T00:10:02.081Z,505.5260
2019-04-04T00:10:11.259Z,503.0600
2019-04-04T00:10:18.257Z,503.9840
2019-04-04T00:10:25.255Z,502.7790
2019-04-04T00:10:32.842Z,499.9090
2019-04-04T00:10:41.260Z,498.7880
2019-04-04T00:10:48.262Z,498.6870
2019-04-04T00:10:55.259Z,498.9360
2019-04-04T00:11:02.254Z,497.2010
2019-04-04T00:11:09.273Z,497.3480
2019-04-04T00:11:16.261Z,496.4770
2019-04-04T00:11:23.260Z,496.9670
2019-04-04T00:11:30.256Z,496.8320
2019-04-04T00:11:37.466Z,496.5330
2019-04-04T00:11:44.253Z,495.0080
2019-04-04T00:11:51.281Z,495.4990
2019-04-04T00:11:58.252Z,496.1350
2019-04-04T00:12:06.136Z,495.5900
2019-04-04T00:12:14.274Z,497.9180
2019-04-04T00:12:23.273Z,499.3100
2019-04-04T00:12:32.263Z,500.2660
2019-04-04T00:12:41.247Z,502.8720
2019-04-04T00:12:50.273Z,502.8810
2019-04-04T00:12:59.267Z,504.3150
2019-04-04T00:13:09.217Z,502.9560
2019-04-04T00:13:20.265Z,500.2710
2019-04-04T00:13:29.264Z,498.2400
2019-04-04T00:13:38.253Z,497.6060
2019-04-04T00:13:47.249Z,494.8700
2019-04-04T00:13:56.307Z,500.6030
2019-04-04T00:14:05.254Z,502.6920
2019-04-04T00:14:14.322Z,505.7210
2019-04-04T00:14:23.265Z,508.7490
2019-04-04T00:14:32.266Z,510.8110
2019-04-04T00:14:43.551Z,512.8780
2019-04-04T00:14:53.272Z,513.7650
2019-04-04T00:15:02.274Z,511.7570
2019-04-04T00:15:12.923Z,510.7030
2019-04-04T00:15:23.279Z,510.7110
2019-04-04T00:15:32.264Z,511.9950
2019-04-04T00:15:41.276Z,512.1580
2019-04-04T00:15:50.275Z,512.6880
2019-04-04T00:15:59.292Z,511.9370
2019-04-04T00:16:08.278Z,510.6720
2019-04-04T00:16:17.250Z,509.4740
2019-04-04T00:16:26.272Z,507.0000
2019-04-04T00:16:35.275Z,505.0890
2019-04-04T00:16:44.263Z,501.8170
2019-04-04T00:16:53.283Z,498.9710
2019-04-04T00:17:02.256Z,499.8760
2019-04-04T00:17:11.266Z,501.5450
2019-04-04T00:17:23.018Z,503.5060
2019-04-04T00:17:30.287Z,505.0850
2019-04-04T00:17:37.257Z,507.1270
2019-04-04T00:17:44.258Z,507.0280
2019-04-04T00:17:51.840Z,507.2960
2019-04-04T00:18:03.267Z,507.4720
2019-04-04T00:18:10.261Z,507.8120
2019-04-04T00:18:17.271Z,506.6100
2019-04-04T00:18:25.499Z,504.6160
2019-04-04T00:18:34.263Z,503.9160
2019-04-04T00:18:41.348Z,503.4020
2019-04-04T00:18:48.268Z,504.2670
2019-04-04T00:18:55.261Z,505.8370
2019-04-04T00:19:02.292Z,505.1910
2019-04-04T00:19:09.259Z,506.1100
2019-04-04T00:19:16.252Z,507.9830
2019-04-04T00:19:23.245Z,508.6700
2019-04-04T00:19:30.605Z,509.4800
2019-04-04T00:19:37.286Z,512.8900
2019-04-04T00:19:44.252Z,517.0580
2019-04-04T00:19:51.264Z,520.5360
2019-04-04T00:19:58.997Z,520.3470
2019-04-04T00:20:07.257Z,521.2280
2019-04-04T00:20:14.272Z,520.7480
2019-04-04T00:20:21.274Z,525.3800
2019-04-04T00:20:29.885Z,527.7490
2019-04-04T00:20:38.247Z,524.9660
2019-04-04T00:20:45.276Z,522.1600
2019-04-04T00:20:52.276Z,520.0970
2019-04-04T00:20:59.266Z,519.3830
2019-04-04T00:21:06.276Z,521.1110
2019-04-04T00:21:13.269Z,519.7070
2019-04-04T00:21:20.260Z,517.1090
2019-04-04T00:21:27.265Z,514.8720
2019-04-04T00:21:34.638Z,514.6630
2019-04-04T00:21:41.287Z,514.7450
2019-04-04T00:21:48.266Z,514.4640
2019-04-04T00:21:55.256Z,514.8110
2019-04-04T00:22:04.637Z,513.8040
2019-04-04T00:22:11.265Z,511.6870
2019-04-04T00:22:18.249Z,509.7810
2019-04-04T00:22:25.265Z,508.6850
2019-04-04T00:22:35.173Z,508.3320
2019-04-04T00:22:44.246Z,506.1110
2019-04-04T00:22:51.278Z,505.1040
2019-04-04T00:22:58.265Z,503.5090
2019-04-04T00:23:06.894Z,502.3100
2019-04-04T00:23:14.270Z,503.5130
2019-04-04T00:23:21.276Z,503.8960
2019-04-04T00:23:28.275Z,502.6670
2019-04-04T00:23:37.647Z,502.9690
2019-04-04T00:23:45.260Z,502.2840
2019-04-04T00:23:52.250Z,503.4860
2019-04-04T00:23:59.252Z,503.6030
2019-04-04T00:24:07.081Z,502.8130
2019-04-04T00:24:16.259Z,502.1910
2019-04-04T00:24:23.263Z,502.9040
2019-04-04T00:24:30.260Z,502.5830
2019-04-04T00:24:39.338Z,502.2710
2019-04-04T00:24:46.264Z,501.8970
2019-04-04T00:24:53.259Z,502.2620
2019-04-04T00:25:00.258Z,502.7630
2019-04-04T00:25:09.742Z,503.4010
2019-04-04T00:25:17.266Z,505.9080
2019-04-04T00:25:24.258Z,508.3100
2019-04-04T00:25:31.272Z,510.9760
2019-04-04T00:25:40.305Z,511.6060
2019-04-04T00:25:47.264Z,512.3830
2019-04-04T00:25:54.256Z,512.9860
2019-04-04T00:26:01.265Z,515.0850
2019-04-04T00:26:08.869Z,516.5820
2019-04-04T00:26:17.264Z,520.2740
2019-04-04T00:26:24.256Z,518.7020
2019-04-04T00:26:31.262Z,520.0920
2019-04-04T00:26:38.260Z,524.7080
2019-04-04T00:26:45.264Z,530.2260
2019-04-04T00:26:54.267Z,527.9440
2019-04-04T00:27:03.278Z,524.3340
2019-04-04T00:27:13.755Z,521.5800
2019-04-04T00:27:22.257Z,520.5300
2019-04-04T00:27:31.265Z,518.3970
2019-04-04T00:27:40.282Z,514.1550
2019-04-04T00:27:49.324Z,510.6600
2019-04-04T00:27:58.359Z,509.1610
2019-04-04T00:28:07.263Z,507.3330
2019-04-04T00:28:16.266Z,505.7800
2019-04-04T00:28:25.270Z,505.5020
2019-04-04T00:28:34.271Z,506.5540
2019-04-04T00:28:44.112Z,505.3130
2019-04-04T00:28:55.265Z,503.0440
2019-04-04T00:29:04.295Z,503.1260
2019-04-04T00:29:13.298Z,503.4840
2019-04-04T00:29:22.291Z,504.1160
2019-04-04T00:29:30.286Z,504.0730
2019-04-04T00:29:37.258Z,503.8890
2019-04-04T00:29:44.279Z,506.0470
2019-04-04T00:29:52.284Z,507.4260
2019-04-04T00:29:59.249Z,509.3150
2019-04-04T00:30:06.279Z,509.9060
2019-04-04T00:30:13.265Z,509.6620
2019-04-04T00:30:20.266Z,509.4730
2019-04-04T00:30:27.267Z,509.8370
2019-04-04T00:30:34.263Z,513.2450
2019-04-04T00:30:41.257Z,515.6420
2019-04-04T00:30:48.864Z,515.6140
2019-04-04T00:30:55.258Z,514.2110
2019-04-04T00:31:02.257Z,515.0120
2019-04-04T00:31:09.262Z,517.1530
2019-04-04T00:31:18.822Z,518.5180
2019-04-04T00:31:26.309Z,516.3470
2019-04-04T00:31:33.244Z,513.2670
2019-04-04T00:31:40.272Z,512.2600
2019-04-04T00:31:49.488Z,511.7230
2019-04-04T00:31:57.268Z,510.4840
2019-04-04T00:32:04.266Z,509.3960
2019-04-04T00:32:11.256Z,510.8500
2019-04-04T00:32:20.656Z,513.3050
2019-04-04T00:32:27.270Z,514.8230
2019-04-04T00:32:34.261Z,514.1190
2019-04-04T00:32:43.273Z,510.7950
2019-04-04T00:32:52.793Z,510.0880
2019-04-04T00:33:02.277Z,510.0890
2019-04-04T00:33:11.273Z,509.3980
2019-04-04T00:33:20.280Z,510.1580
2019-04-04T00:33:29.250Z,513.1370
2019-04-04T00:33:38.260Z,517.3790
2019-04-04T00:33:47.270Z,521.6840
2019-04-04T00:33:56.458Z,521.6350
2019-04-04T00:34:05.271Z,520.6410
2019-04-04T00:34:14.294Z,516.3970
2019-04-04T00:34:23.279Z,513.5130
2019-04-04T00:34:32.265Z,513.4030
2019-04-04T00:34:41.270Z,511.4620
2019-04-04T00:34:50.264Z,507.2650
2019-04-04T00:34:59.855Z,502.9480
2019-04-04T00:35:09.254Z,500.5230
2019-04-04T00:35:16.275Z,499.2240
2019-04-04T00:35:23.246Z,497.5120
2019-04-04T00:35:31.088Z,495.5020
2019-04-04T00:35:38.268Z,496.9520
2019-04-04T00:35:45.264Z,499.2200
2019-04-04T00:35:52.277Z,501.3540
2019-04-04T00:36:00.718Z,502.5070
2019-04-04T00:36:09.271Z,504.9770
2019-04-04T00:36:16.275Z,507.1370
2019-04-04T00:36:23.274Z,508.8290
2019-04-04T00:36:30.260Z,507.5980
2019-04-04T00:36:37.263Z,506.2260
2019-04-04T00:36:44.267Z,505.7210
2019-04-04T00:36:51.257Z,505.1440
2019-04-04T00:36:58.243Z,504.1190
2019-04-04T00:37:05.328Z,504.5210
2019-04-04T00:37:12.256Z,505.8610
2019-04-04T00:37:19.251Z,505.9750
2019-04-04T00:37:26.280Z,505.3820
2019-04-04T00:37:34.464Z,505.2430
2019-04-04T00:37:43.265Z,504.3500
2019-04-04T00:37:50.273Z,504.2560
2019-04-04T00:37:57.258Z,503.4040
2019-04-04T00:38:06.681Z,502.1990
2019-04-04T00:38:13.273Z,501.2610
2019-04-04T00:38:20.262Z,500.7760
2019-04-04T00:38:29.254Z,498.7000
2019-04-04T00:38:38.630Z,496.9850
2019-04-04T00:38:47.280Z,495.6200
2019-04-04T00:38:56.258Z,495.5510
2019-04-04T00:39:05.260Z,496.0650
2019-04-04T00:39:14.260Z,494.8090
2019-04-04T00:39:23.324Z,494.6570
2019-04-04T00:39:32.295Z,496.7150
2019-04-04T00:39:41.260Z,498.5730
2019-04-04T00:39:50.252Z,497.3890
2019-04-04T00:39:59.246Z,496.9060
2019-04-04T00:40:10.917Z,498.1170
2019-04-04T00:40:20.259Z,502.3330
2019-04-04T00:40:29.253Z,504.0180
2019-04-04T00:40:38.270Z,505.4080
2019-04-04T00:40:47.251Z,508.0080
2019-04-04T00:40:56.267Z,510.2920
2019-04-04T00:41:03.258Z,510.8220
2019-04-04T00:41:10.975Z,508.2080
2019-04-04T00:41:19.270Z,504.9610
2019-04-04T00:41:26.284Z,505.5120
2019-04-04T00:41:33.247Z,505.9480
2019-04-04T00:41:40.274Z,505.1580
2019-04-04T00:41:47.275Z,506.8800
2019-04-04T00:41:54.267Z,509.6760
2019-04-04T00:42:01.273Z,507.2900
2019-04-04T00:42:08.268Z,508.4400
2019-04-04T00:42:16.959Z,508.1850
2019-04-04T00:42:24.253Z,505.2980
2019-04-04T00:42:31.275Z,505.2290
2019-04-04T00:42:38.275Z,504.2410
2019-04-04T00:42:45.953Z,504.5510
2019-04-04T00:42:54.266Z,505.3660
2019-04-04T00:43:01.260Z,506.9480
2019-04-04T00:43:08.266Z,508.5030
2019-04-04T00:43:15.265Z,509.7150
2019-04-04T00:43:22.259Z,511.2600
2019-04-04T00:43:29.263Z,513.0850
2019-04-04T00:43:36.277Z,515.7040
2019-04-04T00:43:43.273Z,516.6030
2019-04-04T00:43:51.868Z,517.8610
2019-04-04T00:43:59.279Z,517.8250
2019-04-04T00:44:06.254Z,518.6240
2019-04-04T00:44:13.260Z,517.4950
2019-04-04T00:44:22.722Z,516.0780
2019-04-04T00:44:29.300Z,515.2160
2019-04-04T00:44:36.278Z,514.1280
2019-04-04T00:44:43.274Z,511.3360
2019-04-04T00:44:50.264Z,508.7520
2019-04-04T00:44:57.262Z,505.5460
2019-04-04T00:45:04.262Z,503.8440
2019-04-04T00:45:11.263Z,502.6470
2019-04-04T00:45:18.271Z,502.7540
2019-04-04T00:45:25.266Z,501.9060
2019-04-04T00:45:37.283Z,499.1600
2019-04-04T00:45:44.322Z,497.7730
2019-04-04T00:45:51.251Z,495.9870
2019-04-04T00:46:00.532Z,495.4100
2019-04-04T00:46:08.252Z,495.6940
2019-04-04T00:46:15.262Z,497.8930
2019-04-04T00:46:22.266Z,498.8150
2019-04-04T00:46:30.876Z,498.7510
2019-04-04T00:46:38.253Z,496.6800
2019-04-04T00:46:45.274Z,496.5080
2019-04-04T00:46:52.275Z,497.0140
2019-04-04T00:47:01.504Z,498.6900
2019-04-04T00:47:09.259Z,499.9720
2019-04-04T00:47:16.252Z,499.9650
2019-04-04T00:47:23.271Z,499.9600
2019-04-04T00:47:32.329Z,498.8640
2019-04-04T00:47:39.264Z,498.5010
2019-04-04T00:47:46.251Z,498.3250
2019-04-04T00:47:53.280Z,497.9270
2019-04-04T00:48:01.122Z,498.0390
2019-04-04T00:48:10.246Z,498.4200
2019-04-04T00:48:17.292Z,496.9240
2019-04-04T00:48:24.256Z,495.4720
2019-04-04T00:48:32.186Z,498.8680
2019-04-04T00:48:41.270Z,500.7260
2019-04-04T00:48:48.268Z,499.2100
2019-04-04T00:48:55.271Z,497.8240
2019-04-04T00:49:04.524Z,497.9640
2019-04-04T00:49:11.265Z,499.1270
2019-04-04T00:49:18.255Z,499.4830
2019-04-04T00:49:25.264Z,503.8590
2019-04-04T00:49:32.284Z,505.8800
2019-04-04T00:49:39.262Z,509.2860
2019-04-04T00:49:46.277Z,511.0430
2019-04-04T00:49:53.260Z,511.3310
2019-04-04T00:50:00.269Z,511.2040
2019-04-04T00:50:07.270Z,510.5110
2019-04-04T00:50:14.287Z,510.5560
2019-04-04T00:50:21.288Z,510.2520
2019-04-04T00:50:28.268Z,509.7800
2019-04-04T00:50:36.741Z,510.4760
2019-04-04T00:50:44.279Z,510.0840
2019-04-04T00:50:51.272Z,512.2850
2019-04-04T00:50:58.252Z,513.4840
2019-04-04T00:51:07.703Z,516.1470
2019-04-04T00:51:14.266Z,518.3960
2019-04-04T00:51:21.262Z,519.7600
2019-04-04T00:51:28.263Z,520.0150
2019-04-04T00:51:35.262Z,520.7530
2019-04-04T00:51:42.274Z,520.6350
2019-04-04T00:51:49.269Z,520.2510
2019-04-04T00:51:56.272Z,518.0260
2019-04-04T00:52:03.275Z,515.2500
2019-04-04T00:52:10.871Z,512.6560
2019-04-04T00:52:17.268Z,511.2290
2019-04-04T00:52:24.264Z,509.2970
2019-04-04T00:52:31.258Z,507.0930
2019-04-04T00:52:40.696Z,506.0070
2019-04-04T00:52:48.249Z,506.4090
2019-04-04T00:52:55.281Z,505.7480
2019-04-04T00:53:02.245Z,505.5460
2019-04-04T00:53:09.946Z,505.9550
2019-04-04T00:53:18.265Z,505.3260
2019-04-04T00:53:25.259Z,500.2970
2019-04-04T00:53:32.267Z,498.8580
2019-04-04T00:53:39.271Z,496.2700
2019-04-04T00:53:46.267Z,496.2870
2019-04-04T00:53:53.279Z,495.0130
2019-04-04T00:54:00.277Z,492.3120
2019-04-04T00:54:07.272Z,490.0020
2019-04-04T00:54:14.659Z,489.1800
2019-04-04T00:54:21.259Z,490.8190
2019-04-04T00:54:28.306Z,491.1290
2019-04-04T00:54:35.309Z,492.0080
2019-04-04T00:54:43.005Z,493.8650
2019-04-04T00:54:51.266Z,496.0580
2019-04-04T00:54:58.258Z,494.6140
2019-04-04T00:55:05.907Z,493.2300
2019-04-04T00:55:13.920Z,493.7910
2019-04-04T00:55:22.265Z,491.6800
2019-04-04T00:55:29.272Z,489.0900
2019-04-04T00:55:36.271Z,484.5460
2019-04-04T00:55:43.269Z,482.9790
2019-04-04T00:55:50.266Z,483.6920
2019-04-04T00:55:57.270Z,483.7700
2019-04-04T00:56:04.244Z,483.7070
2019-04-04T00:56:11.279Z,483.3700
2019-04-04T00:56:18.787Z,484.2420
2019-04-04T00:56:25.273Z,486.0460
2019-04-04T00:56:32.265Z,489.2230
2019-04-04T00:56:39.275Z,492.9920
2019-04-04T00:56:46.915Z,494.6720
2019-04-04T00:56:55.293Z,498.1700
2019-04-04T00:57:02.276Z,499.5360
2019-04-04T00:57:09.280Z,502.5580
2019-04-04T00:57:17.263Z,503.9330
2019-04-04T00:57:25.260Z,506.9520
2019-04-04T00:57:32.257Z,506.8650
2019-04-04T00:57:39.261Z,505.3920
2019-04-04T00:57:46.317Z,509.8240
2019-04-04T00:57:53.276Z,514.0650
2019-04-04T00:58:00.331Z,520.7930
2019-04-04T00:58:07.268Z,524.9490
2019-04-04T00:58:14.275Z,523.4300
2019-04-04T00:58:21.472Z,521.7210
2019-04-04T00:58:28.280Z,517.0340
2019-04-04T00:58:35.263Z,511.4200
2019-04-04T00:58:42.270Z,504.5720
2019-04-04T00:58:51.669Z,500.5630
2019-04-04T00:58:58.278Z,498.4290
2019-04-04T00:59:05.281Z,496.8600
2019-04-04T00:59:12.260Z,497.3040
2019-04-04T00:59:22.742Z,500.1150
2019-04-04T00:59:29.258Z,505.1110
2019-04-04T00:59:36.293Z,506.8290
2019-04-04T00:59:43.268Z,509.7620
2019-04-04T00:59:53.381Z,513.7390
2019-04-04T01:00:00.274Z,517.2520
2019-04-04T01:00:07.275Z,518.9470
2019-04-04T01:00:14.282Z,521.0570
2019-04-04T01:00:22.011Z,522.1720
2019-04-04T01:00:30.267Z,523.9320
2019-04-04T01:00:37.267Z,523.2590
2019-04-04T01:00:44.259Z,525.2800
2019-04-04T01:00:52.907Z,527.0100
2019-04-04T01:01:01.266Z,528.3100
2019-04-04T01:01:08.274Z,523.0360
2019-04-04T01:01:15.278Z,518.2720
2019-04-04T01:01:22.278Z,514.2800
2019-04-04T01:01:29.264Z,514.9390
2019-04-04T01:01:36.266Z,513.9630
2019-04-04T01:01:43.275Z,513.7880
2019-04-04T01:01:50.278Z,510.8000
2019-04-04T01:01:57.643Z,506.9550
2019-04-04T01:02:04.281Z,502.3790
2019-04-04T01:02:11.275Z,499.1660
2019-04-04T01:02:18.331Z,495.2060
2019-04-04T01:02:27.245Z,490.6330
2019-04-04T01:02:34.257Z,489.9920
2019-04-04T01:02:41.273Z,489.8340
2019-04-04T01:02:48.278Z,490.0970
2019-04-04T01:02:58.234Z,491.2580
2019-04-04T01:03:05.257Z,491.6220
2019-04-04T01:03:12.287Z,491.6440
2019-04-04T01:03:19.260Z,491.1670
2019-04-04T01:03:26.274Z,489.5640
2019-04-04T01:03:33.263Z,485.9680
2019-04-04T01:03:40.267Z,481.9150
2019-04-04T01:03:47.264Z,478.6230
2019-04-04T01:03:54.268Z,477.0170
2019-04-04T01:04:01.265Z,474.8590
2019-04-04T01:04:08.276Z,474.2580
2019-04-04T01:04:15.267Z,474.3010
2019-04-04T01:04:22.267Z,476.9780
2019-04-04T01:04:31.201Z,483.5940
2019-04-04T01:04:38.298Z,487.1080
2019-04-04T01:04:45.274Z,486.8340
2019-04-04T01:04:52.281Z,486.5510
2019-04-04T01:05:01.264Z,485.6670
2019-04-04T01:05:08.265Z,487.2690
2019-04-04T01:05:15.261Z,489.3830
2019-04-04T01:05:22.264Z,491.7030
2019-04-04T01:05:30.140Z,493.0030
2019-04-04T01:05:38.265Z,495.9520
2019-04-04T01:05:45.267Z,496.4210
2019-04-04T01:05:52.266Z,498.8540
2019-04-04T01:05:59.270Z,501.5830
2019-04-04T01:06:07.271Z,505.3200
2019-04-04T01:06:14.277Z,506.8930
2019-04-04T01:06:21.270Z,509.4770
2019-04-04T01:06:28.267Z,509.7010
2019-04-04T01:06:35.265Z,510.3650
2019-04-04T01:06:42.258Z,511.3240
2019-04-04T01:06:49.279Z,510.8790
2019-04-04T01:06:56.262Z,511.0810
2019-04-04T01:07:05.163Z,512.0570
2019-04-04T01:07:12.261Z,511.0340
2019-04-04T01:07:19.264Z,510.9860
2019-04-04T01:07:26.262Z,509.0790
2019-04-04T01:07:33.951Z,507.8410
2019-04-04T01:07:45.265Z,504.1780
2019-04-04T01:07:52.259Z,502.8420
2019-04-04T01:07:59.267Z,502.4140
2019-04-04T01:08:07.013Z,500.1790
2019-04-04T01:08:14.260Z,500.7050
2019-04-04T01:08:21.277Z,501.1870
2019-04-04T01:08:28.279Z,503.9660
2019-04-04T01:08:37.907Z,505.3590
2019-04-04T01:08:45.274Z,506.7220
2019-04-04T01:08:52.328Z,508.3340
2019-04-04T01:08:59.262Z,507.8170
2019-04-04T01:09:11.677Z,506.6430
2019-04-04T01:09:19.263Z,502.0960
2019-04-04T01:09:26.266Z,500.1530
2019-04-04T01:09:33.272Z,502.2000
2019-04-04T01:09:40.314Z,505.3510
2019-04-04T01:09:49.269Z,505.8180
2019-04-04T01:09:58.288Z,508.1950
2019-04-04T01:10:07.265Z,508.4930
2019-04-04T01:10:18.710Z,509.3230
2019-04-04T01:10:27.299Z,511.4620
2019-04-04T01:10:36.271Z,511.9970
2019-04-04T01:10:45.278Z,514.1170
2019-04-04T01:10:54.257Z,516.6530
2019-04-04T01:11:03.271Z,519.6200
2019-04-04T01:11:12.355Z,518.3430
2019-04-04T01:11:21.265Z,518.2990
2019-04-04T01:11:30.275Z,517.8890
2019-04-04T01:11:39.297Z,517.5520
2019-04-04T01:11:50.945Z,518.0080
2019-04-04T01:12:00.268Z,522.3500
2019-04-04T01:12:09.279Z,524.3960
2019-04-04T01:12:21.393Z,523.1580
2019-04-04T01:12:30.266Z,523.1130
2019-04-04T01:12:39.286Z,521.2470
2019-04-04T01:12:48.296Z,516.2610
2019-04-04T01:12:57.273Z,509.1010
2019-04-04T01:13:06.281Z,505.2310
2019-04-04T01:13:15.280Z,503.2660
2019-04-04T01:13:27.250Z,501.2490
2019-04-04T01:13:36.273Z,501.9350
2019-04-04T01:13:45.279Z,503.0460
2019-04-04T01:13:54.276Z,502.5230
2019-04-04T01:14:03.284Z,501.8130
2019-04-04T01:14:12.263Z,503.2570
2019-04-04T01:14:21.266Z,503.1710
2019-04-04T01:14:30.272Z,503.0830
2019-04-04T01:14:39.290Z,503.2040
2019-04-04T01:14:48.318Z,506.3150
2019-04-04T01:14:58.149Z,509.0150
2019-04-04T01:15:09.276Z,510.7550
2019-04-04T01:15:18.295Z,510.9650
2019-04-04T01:15:30.792Z,510.6980
2019-04-04T01:15:40.310Z,510.5110
2019-04-04T01:15:49.274Z,511.5780
2019-04-04T01:15:58.275Z,511.4510
2019-04-04T01:16:07.250Z,510.2660
2019-04-04T01:16:16.280Z,509.0730
2019-04-04T01:16:25.276Z,507.5200
2019-04-04T01:16:34.278Z,506.8030
2019-04-04T01:16:43.267Z,505.6790
2019-04-04T01:16:52.274Z,504.4770
2019-04-04T01:16:59.268Z,504.6920
2019-04-04T01:17:06.293Z,505.9080
2019-04-04T01:17:13.269Z,505.8000
2019-04-04T01:17:20.270Z,505.8520
2019-04-04T01:17:27.275Z,503.7760
2019-04-04T01:17:35.043Z,503.6860
2019-04-04T01:17:42.276Z,503.9720
2019-04-04T01:17:49.278Z,504.5230
2019-04-04T01:17:56.253Z,504.3830
2019-04-04T01:18:03.995Z,505.4330
2019-04-04T01:18:13.266Z,503.6130
2019-04-04T01:18:20.271Z,501.5140
2019-04-04T01:18:27.273Z,502.7770
2019-04-04T01:18:36.668Z,504.6870
2019-04-04T01:18:43.273Z,504.0780
2019-04-04T01:18:50.283Z,504.8530
2019-04-04T01:18:57.278Z,505.8360
2019-04-04T01:19:04.278Z,508.5140
2019-04-04T01:19:11.283Z,509.0190
2019-04-04T01:19:18.251Z,509.6990
2019-04-04T01:19:25.282Z,508.6480
2019-04-04T01:19:32.309Z,509.9900
2019-04-04T01:19:39.288Z,511.9980
2019-04-04T01:19:48.733Z,512.6480
2019-04-04T01:19:56.316Z,511.5990
2019-04-04T01:20:03.257Z,510.3050
2019-04-04T01:20:12.267Z,509.5140
2019-04-04T01:20:21.267Z,512.3440
2019-04-04T01:20:30.267Z,512.7290
2019-04-04T01:20:39.259Z,511.5730
2019-04-04T01:20:50.441Z,509.1440
2019-04-04T01:21:00.272Z,509.9480
2019-04-04T01:21:09.291Z,509.4670
2019-04-04T01:21:18.257Z,507.7790
2019-04-04T01:21:27.272Z,505.8060
2019-04-04T01:21:36.275Z,506.4050
2019-04-04T01:21:45.274Z,506.6540
2019-04-04T01:21:54.260Z,506.5910
2019-04-04T01:22:03.272Z,506.0430
2019-04-04T01:22:12.295Z,506.9740
2019-04-04T01:22:21.265Z,508.5680
2019-04-04T01:22:30.287Z,509.4540
2019-04-04T01:22:39.271Z,509.2860
2019-04-04T01:22:46.269Z,510.6620
2019-04-04T01:22:54.086Z,510.2930
2019-04-04T01:23:02.271Z,508.2970
2019-04-04T01:23:09.268Z,505.4670
2019-04-04T01:23:16.264Z,504.4800
2019-04-04T01:23:23.272Z,501.0280
2019-04-04T01:23:30.284Z,497.7340
2019-04-04T01:23:37.271Z,496.1410
2019-04-04T01:23:44.264Z,495.9150
2019-04-04T01:23:51.275Z,494.8750
2019-04-04T01:23:58.969Z,496.1450
2019-04-04T01:24:05.268Z,496.5530
2019-04-04T01:24:12.274Z,500.2790
2019-04-04T01:24:19.279Z,504.0530
2019-04-04T01:24:27.109Z,506.2020
2019-04-04T01:24:36.281Z,507.0530
2019-04-04T01:24:43.266Z,508.1270
2019-04-04T01:24:50.269Z,509.3990
2019-04-04T01:24:59.053Z,510.2250
2019-04-04T01:25:07.267Z,511.5910
2019-04-04T01:25:14.273Z,511.5040
2019-04-04T01:25:21.279Z,512.4240
2019-04-04T01:25:31.746Z,511.6800
2019-04-04T01:25:39.261Z,510.5490
2019-04-04T01:25:46.271Z,510.6920
2019-04-04T01:25:53.264Z,509.8360
2019-04-04T01:26:01.352Z,508.9210
2019-04-04T01:26:10.262Z,507.0830
2019-04-04T01:26:17.263Z,507.4330
2019-04-04T01:26:24.265Z,507.1430
2019-04-04T01:26:31.260Z,505.6680
2019-04-04T01:26:38.253Z,505.0910
2019-04-04T01:26:45.277Z,504.3400
2019-04-04T01:26:52.300Z,502.9530
2019-04-04T01:26:59.269Z,502.0970
2019-04-04T01:27:06.920Z,499.8420
2019-04-04T01:27:14.273Z,497.1400
2019-04-04T01:27:21.281Z,496.1840
2019-04-04T01:27:28.287Z,496.6320
2019-04-04T01:27:36.966Z,496.8770
2019-04-04T01:27:44.299Z,497.5840
2019-04-04T01:27:51.275Z,498.8580
2019-04-04T01:27:58.268Z,501.3500
2019-04-04T01:28:07.809Z,502.6840
2019-04-04T01:28:15.303Z,503.3750
2019-04-04T01:28:22.277Z,504.6460
2019-04-04T01:28:29.275Z,505.1890
2019-04-04T01:28:37.111Z,505.2850
2019-04-04T01:28:45.278Z,503.2420
2019-04-04T01:28:52.274Z,499.8860
2019-04-04T01:28:59.356Z,498.5930
2019-04-04T01:29:06.302Z,497.2470
2019-04-04T01:29:13.275Z,495.6880
2019-04-04T01:29:22.261Z,497.2600
2019-04-04T01:29:31.264Z,500.0990
2019-04-04T01:29:40.897Z,502.8930
2019-04-04T01:29:50.283Z,504.1050
2019-04-04T01:29:59.289Z,500.9380
2019-04-04T01:30:08.260Z,498.8180
2019-04-04T01:30:17.263Z,497.1580
2019-04-04T01:30:26.267Z,495.0920
2019-04-04T01:30:35.279Z,495.7170
2019-04-04T01:30:44.284Z,497.5840
2019-04-04T01:30:53.293Z,499.6410
2019-04-04T01:31:02.286Z,501.2270
2019-04-04T01:31:14.647Z,498.9800
2019-04-04T01:31:24.298Z,496.0330
2019-04-04T01:31:33.283Z,497.9430
2019-04-04T01:31:42.269Z,498.4740
2019-04-04T01:31:51.273Z,498.5630
2019-04-04T01:31:58.273Z,496.6880
2019-04-04T01:32:05.279Z,494.2440
2019-04-04T01:32:12.283Z,495.8960
2019-04-04T01:32:19.261Z,495.4880
2019-04-04T01:32:26.258Z,496.7500
2019-04-04T01:32:33.277Z,498.2860
2019-04-04T01:32:40.282Z,502.0800
2019-04-04T01:32:48.252Z,501.5860
2019-04-04T01:32:55.292Z,498.7990
2019-04-04T01:33:03.688Z,501.9490